sensor_id;sensor_type;location;lat;lon;timestamp;pressure;altitude;pressure_sealevel;temperature;humidity
71903;BME280;59778;50.310;18.780;2023-03-14T00:06:59;97254.47;;;9.94;64.73
71903;BME280;59778;50.310;18.780;2023-03-14T00:22:21;97218.88;;;10.62;62.13
71903;BME280;59778;50.310;18.780;2023-03-14T00:37:42;97179.91;;;10.57;63.06
71903;BME280;59778;50.310;18.780;2023-03-14T00:53:03;97152.53;;;10.81;61.93
71903;BME280;59778;50.310;18.780;2023-03-14T01:08:26;97165.50;;;10.79;62.06
71903;BME280;59778;50.310;18.780;2023-03-14T01:23:48;97097.59;;;10.91;61.15
71903;BME280;59778;50.310;18.780;2023-03-14T01:39:10;97084.47;;;11.11;60.40
71903;BME280;59778;50.310;18.780;2023-03-14T01:54:35;97090.25;;;11.03;59.78
71903;BME280;59778;50.310;18.780;2023-03-14T02:09:58;97106.72;;;10.85;60.39
71903;BME280;59778;50.310;18.780;2023-03-14T02:25:48;97070.25;;;10.58;61.55
71903;BME280;59778;50.310;18.780;2023-03-14T02:41:07;97060.13;;;10.42;62.58
71903;BME280;59778;50.310;18.780;2023-03-14T02:56:28;97068.38;;;10.58;61.34
71903;BME280;59778;50.310;18.780;2023-03-14T03:11:50;97038.50;;;10.70;60.69
71903;BME280;59778;50.310;18.780;2023-03-14T03:27:11;97113.09;;;10.44;61.75
71903;BME280;59778;50.310;18.780;2023-03-14T03:42:33;97149.03;;;10.16;63.51
71903;BME280;59778;50.310;18.780;2023-03-14T03:57:55;97122.56;;;10.12;63.49
71903;BME280;59778;50.310;18.780;2023-03-14T04:13:16;97111.16;;;9.20;67.76
71903;BME280;59778;50.310;18.780;2023-03-14T04:28:38;97095.72;;;8.66;70.76
71903;BME280;59778;50.310;18.780;2023-03-14T04:44:00;97040.19;;;8.21;72.36
71903;BME280;59778;50.310;18.780;2023-03-14T04:59:21;97058.72;;;7.68;74.60
71903;BME280;59778;50.310;18.780;2023-03-14T05:14:42;97051.97;;;7.52;76.12
71903;BME280;59778;50.310;18.780;2023-03-14T05:30:05;97004.25;;;7.15;78.65
71903;BME280;59778;50.310;18.780;2023-03-14T05:45:26;97024.91;;;7.58;76.09
71903;BME280;59778;50.310;18.780;2023-03-14T06:00:48;96971.47;;;8.46;71.80
71903;BME280;59778;50.310;18.780;2023-03-14T06:16:09;96973.53;;;8.99;70.12
71903;BME280;59778;50.310;18.780;2023-03-14T06:31:31;96931.00;;;9.41;67.92
71903;BME280;59778;50.310;18.780;2023-03-14T06:46:52;96923.03;;;10.16;65.81
71903;BME280;59778;50.310;18.780;2023-03-14T07:02:14;96913.53;;;10.53;64.03
71903;BME280;59778;50.310;18.780;2023-03-14T07:17:35;96947.78;;;10.82;63.37
71903;BME280;59778;50.310;18.780;2023-03-14T07:32:56;96968.84;;;11.04;63.49
71903;BME280;59778;50.310;18.780;2023-03-14T07:48:18;96982.66;;;11.30;61.75
71903;BME280;59778;50.310;18.780;2023-03-14T08:03:40;96977.31;;;11.97;60.67
71903;BME280;59778;50.310;18.780;2023-03-14T08:19:01;96999.00;;;12.25;59.96
71903;BME280;59778;50.310;18.780;2023-03-14T08:34:23;96983.34;;;13.14;58.11
71903;BME280;59778;50.310;18.780;2023-03-14T08:49:44;96965.50;;;12.85;58.19
71903;BME280;59778;50.310;18.780;2023-03-14T09:05:06;97002.00;;;12.62;59.68
71903;BME280;59778;50.310;18.780;2023-03-14T09:20:27;97033.28;;;12.60;60.13
71903;BME280;59778;50.310;18.780;2023-03-14T09:35:49;96999.72;;;12.76;59.95
71903;BME280;59778;50.310;18.780;2023-03-14T09:51:17;97012.59;;;13.24;59.22
71903;BME280;59778;50.310;18.780;2023-03-14T10:06:38;97047.09;;;13.13;59.79
71903;BME280;59778;50.310;18.780;2023-03-14T10:22:02;97064.22;;;12.54;61.75
71903;BME280;59778;50.310;18.780;2023-03-14T10:37:25;97055.19;;;12.32;64.18
71903;BME280;59778;50.310;18.780;2023-03-14T10:52:48;97046.91;;;12.26;65.05
71903;BME280;59778;50.310;18.780;2023-03-14T11:08:51;97066.78;;;12.10;64.94
71903;BME280;59778;50.310;18.780;2023-03-14T11:24:19;97070.22;;;11.72;68.04
71903;BME280;59778;50.310;18.780;2023-03-14T11:39:47;97057.50;;;11.50;70.03
71903;BME280;59778;50.310;18.780;2023-03-14T11:55:20;97062.06;;;11.32;72.28
71903;BME280;59778;50.310;18.780;2023-03-14T12:10:50;97052.81;;;11.17;74.24
71903;BME280;59778;50.310;18.780;2023-03-14T12:26:16;97042.91;;;10.99;75.88
71903;BME280;59778;50.310;18.780;2023-03-14T12:41:44;97014.41;;;11.13;76.90
71903;BME280;59778;50.310;18.780;2023-03-14T13:13:02;97016.88;;;11.15;82.45
71903;BME280;59778;50.310;18.780;2023-03-14T13:28:24;97017.91;;;10.97;83.02
71903;BME280;59778;50.310;18.780;2023-03-14T13:43:46;97040.25;;;10.76;84.98
71903;BME280;59778;50.310;18.780;2023-03-14T13:59:26;97041.69;;;10.55;87.96
71903;BME280;59778;50.310;18.780;2023-03-14T14:15:02;97032.63;;;10.38;91.57
71903;BME280;59778;50.310;18.780;2023-03-14T14:30:29;97003.72;;;10.20;96.35
71903;BME280;59778;50.310;18.780;2023-03-14T14:45:53;97024.69;;;10.13;97.84
71903;BME280;59778;50.310;18.780;2023-03-14T15:01:22;96987.91;;;10.17;97.40
71903;BME280;59778;50.310;18.780;2023-03-14T15:16:43;96994.03;;;10.13;96.79
71903;BME280;59778;50.310;18.780;2023-03-14T15:32:05;96986.03;;;10.18;96.26
71903;BME280;59778;50.310;18.780;2023-03-14T15:47:26;96915.97;;;10.26;95.04
71903;BME280;59778;50.310;18.780;2023-03-14T16:02:48;96944.72;;;10.39;92.45
71903;BME280;59778;50.310;18.780;2023-03-14T16:18:10;96995.81;;;10.54;91.46
71903;BME280;59778;50.310;18.780;2023-03-14T16:33:32;97004.53;;;10.44;91.56
71903;BME280;59778;50.310;18.780;2023-03-14T16:48:54;97004.41;;;10.27;92.62
71903;BME280;59778;50.310;18.780;2023-03-14T17:04:15;97012.34;;;10.17;93.23
71903;BME280;59778;50.310;18.780;2023-03-14T17:19:36;97006.38;;;9.85;93.12
71903;BME280;59778;50.310;18.780;2023-03-14T17:34:58;97023.22;;;9.76;92.86
71903;BME280;59778;50.310;18.780;2023-03-14T17:50:19;97021.75;;;9.50;93.57
71903;BME280;59778;50.310;18.780;2023-03-14T18:05:42;97045.41;;;9.43;93.56
71903;BME280;59778;50.310;18.780;2023-03-14T18:21:03;97077.00;;;9.49;93.89
71903;BME280;59778;50.310;18.780;2023-03-14T18:36:25;97084.81;;;9.27;94.79
71903;BME280;59778;50.310;18.780;2023-03-14T18:51:47;97114.28;;;9.17;94.88
71903;BME280;59778;50.310;18.780;2023-03-14T19:07:08;97124.75;;;9.32;92.07
71903;BME280;59778;50.310;18.780;2023-03-14T19:22:30;97117.22;;;9.34;90.37
71903;BME280;59778;50.310;18.780;2023-03-14T19:37:52;97104.91;;;9.20;89.84
71903;BME280;59778;50.310;18.780;2023-03-14T19:53:13;97113.75;;;9.09;90.09
71903;BME280;59778;50.310;18.780;2023-03-14T20:08:35;97112.50;;;9.11;89.41
71903;BME280;59778;50.310;18.780;2023-03-14T20:23:56;97147.47;;;9.13;88.55
71903;BME280;59778;50.310;18.780;2023-03-14T20:39:20;97155.22;;;9.09;87.92
71903;BME280;59778;50.310;18.780;2023-03-14T20:54:41;97161.53;;;9.03;87.99
71903;BME280;59778;50.310;18.780;2023-03-14T21:10:03;97160.47;;;8.86;88.55
71903;BME280;59778;50.310;18.780;2023-03-14T21:25:25;97194.72;;;8.74;89.24
71903;BME280;59778;50.310;18.780;2023-03-14T21:40:46;97203.56;;;8.87;88.77
71903;BME280;59778;50.310;18.780;2023-03-14T21:56:10;97192.38;;;8.84;88.86
71903;BME280;59778;50.310;18.780;2023-03-14T22:11:32;97221.47;;;8.88;88.98
71903;BME280;59778;50.310;18.780;2023-03-14T22:26:54;97341.25;;;8.84;88.21
71903;BME280;59778;50.310;18.780;2023-03-14T22:42:15;97429.34;;;6.45;95.58
71903;BME280;59778;50.310;18.780;2023-03-14T22:57:36;97456.88;;;5.65;93.62
71903;BME280;59778;50.310;18.780;2023-03-14T23:12:58;97502.22;;;5.12;90.13
71903;BME280;59778;50.310;18.780;2023-03-14T23:28:20;97562.38;;;4.40;93.84
71903;BME280;59778;50.310;18.780;2023-03-14T23:43:44;97611.47;;;4.04;94.67
71903;BME280;59778;50.310;18.780;2023-03-14T23:59:06;97681.56;;;3.95;93.00
